Liberty Grace — WADN — position and weather

sailwx.info

Track history (hours):
 
Tides and Currents Weather Stations Pressure Air Temp Water Temp Dewpoint Dewpoint Depression Visibility Wind Speed Wind Dir Waves Ship Positions

Liberty Grace

Owner: Liberty Shipping Group, LLC, LAKE SUCCESS, NY. More information available from US FCC via Universal Licensing System and Coast Guard Vessel Documentation Center.

Last reported at 2017-Feb-14 04:08 UTC. Time now 2017-Feb-20 14:02 UTC.
Position N 35°47' E 014°50'.

Type: Cargo ship. MMSI: 338219000.

Date/timePositionNaut miles runAvg speedWind from/ knotsBaromVisibWave heightAir tempDewpointWater temp
2017-Feb-14 04:08N 35°47' E 014°50'711.5
2017-Feb-14 03:33N 35°53' E 014°46'2 2.3
2017-Feb-14 02:33N 35°55' E 014°45'0 0.0
2017-Feb-14 01:29N 35°55' E 014°45'0 0.0
2017-Feb-14 00:32N 35°55' E 014°45'0 0.0
2017-Feb-13 23:32N 35°55' E 014°45'0 0.0
2017-Feb-13 22:32N 35°55' E 014°45'0 0.0
2017-Feb-13 21:32N 35°55' E 014°45'0 0.0
2017-Feb-13 20:32N 35°55' E 014°45'0 0.0
2017-Feb-13 19:32N 35°55' E 014°45'0 0.0
2017-Feb-13 18:32N 35°55' E 014°45'0 0.0
2017-Feb-13 17:32N 35°55' E 014°45'0 0.0
2017-Feb-13 16:32N 35°55' E 014°46'0 0.0
2017-Feb-13 15:32N 35°55' E 014°46'0 0.0
2017-Feb-13 14:32N 35°55' E 014°46'0 0.0
2017-Feb-13 13:32N 35°55' E 014°46'0 0.0
2017-Feb-13 12:32N 35°55' E 014°46'0 0.0
2017-Feb-13 11:32N 35°55' E 014°46'0 0.0
2017-Feb-13 10:32N 35°55' E 014°46'0 0.0
2017-Feb-13 09:32N 35°55' E 014°46'0 0.0
2017-Feb-13 08:32N 35°55' E 014°46'0 0.0
2017-Feb-13 07:29N 35°55' E 014°46'0 0.0
2017-Feb-13 06:32N 35°55' E 014°46'0 0.0
2017-Feb-13 05:32N 35°55' E 014°46'0 0.0
2017-Feb-13 04:32N 35°55' E 014°46'0 0.0
2017-Feb-13 03:32N 35°55' E 014°46'3 2.6
2017-Feb-13 02:33N 35°56' E 014°43'8 7.6
2017-Feb-13 01:33N 35°58' E 014°34'3 2.6
2017-Feb-13 00:33N 35°60' E 014°31'1111.5
2017-Feb-12 23:33N 36°08' E 014°22'1010.4
2017-Feb-12 22:33N 36°14' E 014°11'10 9.5
2017-Feb-12 21:33N 36°17' E 013°60'9 9.5
2017-Feb-12 20:33N 36°20' E 013°49'12 9.4
2017-Feb-12 19:17N 36°25' E 013°35'38111.0
2017-Feb-11 08:33N 37°17' E 005°43'1311.8
2017-Feb-11 07:27N 37°16' E 005°26'1011.7
2017-Feb-11 06:33N 37°15' E 005°13'1211.8
2017-Feb-11 05:33N 37°13' E 004°59'1211.7
2017-Feb-11 04:33N 37°12' E 004°44'1111.6
2017-Feb-11 03:33N 37°11' E 004°30'1212.0
2017-Feb-11 02:32N 37°10' E 004°14'1211.9
2017-Feb-11 01:33N 37°09' E 003°60'1211.7
2017-Feb-11 00:33N 37°07' E 003°45'1111.2
2017-Feb-10 23:33N 37°05' E 003°31'1111.0
2017-Feb-10 22:33N 37°03' E 003°18'1110.6
2017-Feb-10 21:33N 37°02' E 003°05'1110.6
2017-Feb-10 20:33N 37°00' E 002°52'1210.9
2017-Feb-10 19:30N 36°59' E 002°37'1211.2
2017-Feb-10 18:28N 36°57' E 002°23'1111.4
2017-Feb-10 17:29N 36°55' E 002°09'26011.7
2017-Feb-09 19:20N 36°15' W 003°10'8512.0
2017-Feb-09 12:14N 36°03' W 004°55'812.5
2017-Feb-09 11:33N 36°01' W 005°05'1413.8
2017-Feb-09 10:33N 35°59' W 005°22'1212.0
2017-Feb-09 09:33N 35°55' W 005°36'  
Track history (hours):
 
Tides and Currents Weather Stations Pressure Air Temp Water Temp Dewpoint Dewpoint Depression Visibility Wind Speed Wind Dir Waves Ship Positions

Liberty Grace

Owner: Liberty Shipping Group, LLC, LAKE SUCCESS, NY. More information available from US FCC via Universal Licensing System and Coast Guard Vessel Documentation Center.

Last reported at 2017-Feb-14 04:08 UTC. Time now 2017-Feb-20 14:02 UTC.
Position N 35°47' E 014°50'.

Type: Cargo ship. MMSI: 338219000.

Date/timePositionNaut miles runAvg speedWind from/ knotsBaromVisibWave heightAir tempDewpointWater temp
2017-Feb-14 04:08N 35°47' E 014°50'711.5
2017-Feb-14 03:33N 35°53' E 014°46'2 2.3
2017-Feb-14 02:33N 35°55' E 014°45'0 0.0
2017-Feb-14 01:29N 35°55' E 014°45'0 0.0
2017-Feb-14 00:32N 35°55' E 014°45'0 0.0
2017-Feb-13 23:32N 35°55' E 014°45'0 0.0
2017-Feb-13 22:32N 35°55' E 014°45'0 0.0
2017-Feb-13 21:32N 35°55' E 014°45'0 0.0
2017-Feb-13 20:32N 35°55' E 014°45'0 0.0
2017-Feb-13 19:32N 35°55' E 014°45'0 0.0
2017-Feb-13 18:32N 35°55' E 014°45'0 0.0
2017-Feb-13 17:32N 35°55' E 014°45'0 0.0
2017-Feb-13 16:32N 35°55' E 014°46'0 0.0
2017-Feb-13 15:32N 35°55' E 014°46'0 0.0
2017-Feb-13 14:32N 35°55' E 014°46'0 0.0
2017-Feb-13 13:32N 35°55' E 014°46'0 0.0
2017-Feb-13 12:32N 35°55' E 014°46'0 0.0
2017-Feb-13 11:32N 35°55' E 014°46'0 0.0
2017-Feb-13 10:32N 35°55' E 014°46'0 0.0
2017-Feb-13 09:32N 35°55' E 014°46'0 0.0
2017-Feb-13 08:32N 35°55' E 014°46'0 0.0
2017-Feb-13 07:29N 35°55' E 014°46'0 0.0
2017-Feb-13 06:32N 35°55' E 014°46'0 0.0
2017-Feb-13 05:32N 35°55' E 014°46'0 0.0
2017-Feb-13 04:32N 35°55' E 014°46'0 0.0
2017-Feb-13 03:32N 35°55' E 014°46'3 2.6
2017-Feb-13 02:33N 35°56' E 014°43'8 7.6
2017-Feb-13 01:33N 35°58' E 014°34'3 2.6
2017-Feb-13 00:33N 35°60' E 014°31'1111.5
2017-Feb-12 23:33N 36°08' E 014°22'1010.4
2017-Feb-12 22:33N 36°14' E 014°11'10 9.5
2017-Feb-12 21:33N 36°17' E 013°60'9 9.5
2017-Feb-12 20:33N 36°20' E 013°49'12 9.4
2017-Feb-12 19:17N 36°25' E 013°35'38111.0
2017-Feb-11 08:33N 37°17' E 005°43'1311.8
2017-Feb-11 07:27N 37°16' E 005°26'1011.7
2017-Feb-11 06:33N 37°15' E 005°13'1211.8
2017-Feb-11 05:33N 37°13' E 004°59'1211.7
2017-Feb-11 04:33N 37°12' E 004°44'1111.6
2017-Feb-11 03:33N 37°11' E 004°30'1212.0
2017-Feb-11 02:32N 37°10' E 004°14'1211.9
2017-Feb-11 01:33N 37°09' E 003°60'1211.7
2017-Feb-11 00:33N 37°07' E 003°45'1111.2
2017-Feb-10 23:33N 37°05' E 003°31'1111.0
2017-Feb-10 22:33N 37°03' E 003°18'1110.6
2017-Feb-10 21:33N 37°02' E 003°05'1110.6
2017-Feb-10 20:33N 37°00' E 002°52'1210.9
2017-Feb-10 19:30N 36°59' E 002°37'1211.2
2017-Feb-10 18:28N 36°57' E 002°23'1111.4
2017-Feb-10 17:29N 36°55' E 002°09'26011.7
2017-Feb-09 19:20N 36°15' W 003°10'8512.0
2017-Feb-09 12:14N 36°03' W 004°55'812.5
2017-Feb-09 11:33N 36°01' W 005°05'1413.8
2017-Feb-09 10:33N 35°59' W 005°22'1212.0
2017-Feb-09 09:33N 35°55' W 005°36'  

Dump ship's entire track history